createdAt,value
2023-05-01T00:00:52.877Z,17.80
2023-05-01T00:03:19.970Z,14.00
2023-05-01T00:05:47.755Z,12.20
2023-05-01T00:08:14.811Z,11.20
2023-05-01T00:10:41.788Z,10.20
2023-05-01T00:13:09.928Z,9.80
2023-05-01T00:15:36.942Z,10.80
2023-05-01T00:18:03.998Z,12.00
2023-05-01T00:20:31.259Z,11.70
2023-05-01T00:22:58.203Z,12.90
2023-05-01T00:25:25.196Z,12.70
2023-05-01T00:27:52.122Z,14.10
2023-05-01T00:30:19.188Z,12.90
2023-05-01T00:32:46.230Z,12.60
2023-05-01T00:35:13.638Z,12.60
2023-05-01T00:37:40.690Z,13.50
2023-05-01T00:40:08.623Z,13.00
2023-05-01T00:42:39.644Z,13.60
2023-05-01T00:45:07.783Z,13.00
2023-05-01T00:47:38.152Z,13.60
2023-05-01T00:50:06.092Z,12.30
2023-05-01T00:52:33.108Z,12.90
2023-05-01T00:55:00.265Z,12.80
2023-05-01T00:57:27.644Z,13.50
2023-05-01T00:59:54.796Z,12.60
2023-05-01T01:02:22.554Z,13.50
2023-05-01T01:04:49.652Z,13.00
2023-05-01T01:07:25.161Z,13.00
2023-05-01T01:10:06.409Z,12.60
2023-05-01T01:12:49.263Z,12.10
2023-05-01T01:15:48.162Z,12.80
2023-05-01T01:18:25.436Z,12.60
2023-05-01T01:21:11.643Z,12.70
2023-05-01T01:24:05.196Z,13.00
2023-05-01T01:27:02.441Z,12.20
2023-05-01T01:29:51.667Z,11.60
2023-05-01T01:32:21.630Z,11.90
2023-05-01T01:34:50.929Z,12.10
2023-05-01T01:37:19.934Z,12.90
2023-05-01T01:39:53.896Z,12.30
2023-05-01T01:42:26.882Z,13.20
2023-05-01T01:45:03.192Z,12.50
2023-05-01T01:47:32.356Z,12.40
2023-05-01T01:50:04.529Z,11.70
2023-05-01T01:52:31.849Z,11.70
2023-05-01T01:55:11.439Z,11.60
2023-05-01T01:57:39.928Z,11.10
2023-05-01T02:00:09.136Z,12.00
2023-05-01T02:02:40.415Z,11.60
2023-05-01T02:05:07.695Z,11.60
2023-05-01T02:07:35.933Z,11.00
2023-05-01T02:10:04.706Z,11.30
2023-05-01T02:12:31.932Z,11.20
2023-05-01T02:14:59.086Z,11.00
2023-05-01T02:17:27.632Z,11.00
2023-05-01T02:19:55.450Z,11.20
2023-05-01T02:22:23.001Z,12.20
2023-05-01T02:24:50.171Z,10.20
2023-05-01T02:27:23.196Z,9.00
2023-05-01T02:29:52.372Z,8.30
2023-05-01T02:32:20.188Z,7.50
2023-05-01T02:34:47.290Z,7.30
2023-05-01T02:37:14.267Z,6.60
2023-05-01T02:39:41.368Z,6.60
2023-05-01T02:42:09.712Z,6.20
2023-05-01T02:44:47.113Z,6.30
2023-05-01T02:47:16.967Z,5.80
2023-05-01T02:49:44.978Z,6.00
2023-05-01T02:52:12.123Z,5.50
2023-05-01T02:54:39.261Z,5.00
2023-05-01T02:57:06.258Z,4.70
2023-05-01T02:59:34.065Z,4.60
2023-05-01T03:02:01.365Z,4.90
2023-05-01T03:04:28.441Z,5.20
2023-05-01T03:06:55.886Z,4.40
2023-05-01T03:09:22.935Z,4.40
2023-05-01T03:11:49.922Z,4.10
2023-05-01T03:14:17.069Z,3.90
2023-05-01T03:16:44.610Z,3.60
2023-05-01T03:19:11.612Z,3.50
2023-05-01T03:21:38.504Z,4.00
2023-05-01T03:24:06.288Z,3.70
2023-05-01T03:26:33.655Z,4.10
2023-05-01T03:29:00.670Z,3.90
2023-05-01T03:31:27.675Z,3.70
2023-05-01T03:33:55.967Z,3.70
2023-05-01T03:36:23.054Z,3.50
2023-05-01T03:38:50.411Z,3.40
2023-05-01T03:41:36.196Z,3.70
2023-05-01T03:44:19.732Z,2.80
2023-05-01T03:46:47.368Z,3.90
2023-05-01T03:49:19.905Z,3.60
2023-05-01T03:51:48.220Z,3.70
2023-05-01T03:54:15.307Z,3.60
2023-05-01T03:56:53.306Z,3.50
2023-05-01T03:59:20.489Z,3.60
2023-05-01T04:01:47.548Z,3.60
2023-05-01T04:04:14.774Z,4.20
2023-05-01T04:06:45.393Z,3.70
2023-05-01T04:09:12.952Z,3.70
2023-05-01T04:11:39.892Z,3.70
2023-05-01T04:14:06.880Z,3.50
2023-05-01T04:16:34.205Z,3.20
2023-05-01T04:19:01.409Z,3.20
2023-05-01T04:21:29.477Z,3.50
2023-05-01T04:23:56.439Z,3.70
2023-05-01T04:26:23.822Z,3.90
2023-05-01T04:28:51.058Z,3.50
2023-05-01T04:31:21.649Z,3.50
2023-05-01T04:33:48.714Z,3.30
2023-05-01T04:36:15.697Z,2.90
2023-05-01T04:38:44.333Z,2.90
2023-05-01T04:41:11.679Z,3.30
2023-05-01T04:43:38.672Z,3.10
2023-05-01T04:46:06.289Z,3.10
2023-05-01T04:48:33.349Z,3.00
2023-05-01T04:51:00.375Z,3.20
2023-05-01T04:53:29.361Z,2.80
2023-05-01T04:55:57.047Z,3.10
2023-05-01T04:58:24.778Z,3.10
2023-05-01T05:00:56.677Z,3.40
2023-05-01T05:03:23.908Z,2.60
2023-05-01T05:05:51.244Z,3.20
2023-05-01T05:08:18.250Z,3.00
2023-05-01T05:10:59.026Z,2.60
2023-05-01T05:13:30.578Z,2.70
2023-05-01T05:16:02.168Z,3.40
2023-05-01T05:18:29.221Z,3.70
2023-05-01T05:20:56.627Z,2.70
2023-05-01T05:23:24.490Z,3.20
2023-05-01T05:25:51.656Z,2.50
2023-05-01T05:28:19.974Z,2.70
2023-05-01T05:30:47.500Z,3.00
2023-05-01T05:33:16.759Z,4.40
2023-05-01T05:35:43.689Z,2.30
2023-05-01T05:38:10.700Z,2.40
2023-05-01T05:40:39.065Z,2.40
2023-05-01T05:43:06.205Z,2.40
2023-05-01T05:45:34.559Z,2.30
2023-05-01T05:48:01.954Z,2.30
2023-05-01T05:50:30.079Z,2.40
2023-05-01T05:52:57.794Z,2.20
2023-05-01T05:55:25.290Z,2.40
2023-05-01T05:58:03.069Z,2.10
2023-05-01T06:00:30.305Z,2.30
2023-05-01T06:03:00.450Z,2.40
2023-05-01T06:05:28.953Z,2.30
2023-05-01T06:07:56.721Z,2.40
2023-05-01T06:10:24.743Z,2.10
2023-05-01T06:12:55.071Z,2.20
2023-05-01T06:15:28.066Z,5.70
2023-05-01T06:17:55.102Z,2.70
2023-05-01T06:20:22.609Z,2.70
2023-05-01T06:22:50.688Z,2.40
2023-05-01T06:25:30.178Z,2.20
2023-05-01T06:27:57.150Z,2.80
2023-05-01T06:30:24.471Z,2.50
2023-05-01T06:32:51.552Z,1.80
2023-05-01T06:35:19.577Z,1.70
2023-05-01T06:37:46.554Z,2.60
2023-05-01T06:40:13.655Z,1.70
2023-05-01T06:42:42.286Z,2.10
2023-05-01T06:45:09.353Z,1.80
2023-05-01T06:47:36.475Z,1.50
2023-05-01T06:50:05.762Z,1.80
2023-05-01T06:52:33.981Z,1.90
2023-05-01T06:55:01.438Z,1.80
2023-05-01T06:57:28.504Z,2.40
2023-05-01T06:59:55.844Z,2.30
2023-05-01T07:02:23.135Z,1.80
2023-05-01T07:04:50.294Z,1.70
2023-05-01T07:07:17.284Z,1.60
2023-05-01T07:09:44.765Z,1.30
2023-05-01T07:12:12.515Z,2.90
2023-05-01T07:14:39.457Z,2.70
2023-05-01T07:17:07.010Z,1.70
2023-05-01T07:19:36.516Z,1.60
2023-05-01T07:22:04.917Z,1.20
2023-05-01T07:24:32.217Z,1.70
2023-05-01T07:27:00.157Z,2.80
2023-05-01T07:29:27.213Z,1.80
2023-05-01T07:31:54.299Z,1.20
2023-05-01T07:34:21.612Z,1.40
2023-05-01T07:36:48.576Z,1.60
2023-05-01T07:39:17.688Z,1.50
2023-05-01T07:41:44.732Z,1.30
2023-05-01T07:44:11.671Z,1.90
2023-05-01T07:46:38.802Z,1.40
2023-05-01T07:49:06.214Z,1.50
2023-05-01T07:51:33.540Z,1.30
2023-05-01T07:54:04.770Z,2.40
2023-05-01T07:56:32.086Z,1.50
2023-05-01T07:58:59.616Z,2.50
2023-05-01T08:01:26.676Z,1.70
2023-05-01T08:03:53.887Z,1.60
2023-05-01T08:06:20.913Z,1.10
2023-05-01T08:08:47.913Z,0.90
2023-05-01T08:11:15.151Z,1.60
2023-05-01T08:13:42.153Z,1.70
2023-05-01T08:16:09.309Z,1.50
2023-05-01T08:18:36.436Z,1.10
2023-05-01T08:21:03.584Z,1.30
2023-05-01T08:23:30.771Z,2.10
2023-05-01T08:25:58.170Z,1.00
2023-05-01T08:28:25.213Z,1.10
2023-05-01T08:30:53.163Z,1.00
2023-05-01T08:33:20.252Z,1.30
2023-05-01T08:35:47.301Z,1.40
2023-05-01T08:38:14.237Z,0.90
2023-05-01T08:40:41.316Z,1.10
2023-05-01T08:43:08.354Z,1.40
2023-05-01T08:45:37.832Z,1.70
2023-05-01T08:48:09.264Z,1.50
2023-05-01T08:50:39.084Z,2.10
2023-05-01T08:53:06.582Z,1.80
2023-05-01T08:55:33.982Z,0.70
2023-05-01T08:58:01.270Z,0.50
2023-05-01T09:00:28.209Z,1.30
2023-05-01T09:02:55.471Z,1.40
2023-05-01T09:05:22.482Z,1.50
2023-05-01T09:07:50.157Z,1.10
2023-05-01T09:10:19.218Z,1.30
2023-05-01T09:12:49.290Z,1.20
2023-05-01T09:15:16.248Z,1.50
2023-05-01T09:17:44.243Z,1.50
2023-05-01T09:20:11.925Z,1.60
2023-05-01T09:22:38.918Z,0.90
2023-05-01T09:25:06.601Z,1.00
2023-05-01T09:27:37.693Z,1.20
2023-05-01T09:30:06.768Z,1.90
2023-05-01T09:32:33.831Z,1.30
2023-05-01T09:35:14.347Z,0.80
2023-05-01T09:37:41.459Z,1.10
2023-05-01T09:40:10.221Z,1.10
2023-05-01T09:42:41.020Z,1.80
2023-05-01T09:45:16.215Z,1.60
2023-05-01T09:47:44.099Z,1.00
2023-05-01T09:50:31.758Z,1.40
2023-05-01T09:53:00.397Z,1.20
2023-05-01T09:55:27.673Z,1.70
2023-05-01T09:57:54.880Z,2.10
2023-05-01T10:00:23.198Z,2.00
2023-05-01T10:02:50.948Z,1.40
2023-05-01T10:05:18.778Z,1.60
2023-05-01T10:08:00.064Z,1.60
2023-05-01T10:10:27.978Z,1.20
2023-05-01T10:12:55.507Z,1.30
2023-05-01T10:15:26.708Z,1.20
2023-05-01T10:17:54.743Z,1.20
2023-05-01T10:20:22.250Z,1.70
2023-05-01T10:22:49.865Z,1.50
2023-05-01T10:25:17.106Z,1.50
2023-05-01T10:27:44.177Z,1.30
2023-05-01T10:30:13.223Z,1.30
2023-05-01T10:32:41.717Z,1.20
2023-05-01T10:35:14.018Z,1.70
2023-05-01T10:37:51.926Z,1.40
2023-05-01T10:40:37.872Z,1.30
2023-05-01T10:43:16.069Z,1.30
2023-05-01T10:45:47.227Z,1.40
2023-05-01T10:48:39.614Z,1.30
2023-05-01T10:51:14.416Z,1.40
2023-05-01T10:53:42.106Z,1.20
2023-05-01T10:56:38.460Z,1.10
2023-05-01T10:59:06.155Z,2.10
2023-05-01T11:01:37.904Z,0.90
2023-05-01T11:04:08.473Z,1.20
2023-05-01T11:06:36.632Z,1.20
2023-05-01T11:09:58.898Z,1.20
2023-05-01T11:12:45.059Z,1.10
2023-05-01T11:15:13.835Z,1.20
2023-05-01T11:17:43.878Z,1.10
2023-05-01T11:20:11.506Z,1.20
2023-05-01T11:22:45.975Z,1.20
2023-05-01T11:25:31.157Z,1.10
2023-05-01T11:27:59.135Z,1.30
2023-05-01T11:30:26.276Z,1.60
2023-05-01T11:32:53.285Z,1.20
2023-05-01T11:35:26.617Z,1.10
2023-05-01T11:37:55.987Z,1.30
2023-05-01T11:40:24.160Z,1.10
2023-05-01T11:42:51.995Z,1.50
2023-05-01T11:45:19.500Z,1.90
2023-05-01T11:47:46.557Z,1.50
2023-05-01T11:50:13.672Z,1.40
2023-05-01T11:52:53.014Z,1.90
2023-05-01T11:55:20.693Z,1.30
2023-05-01T11:57:53.861Z,1.50
2023-05-01T12:00:28.098Z,2.00
2023-05-01T12:02:59.374Z,1.70
2023-05-01T12:05:27.701Z,2.20
2023-05-01T12:08:23.690Z,3.60
2023-05-01T12:10:52.777Z,3.00
2023-05-01T12:13:19.860Z,2.00
2023-05-01T12:15:48.276Z,1.80
2023-05-01T12:18:16.291Z,2.30
2023-05-01T12:20:48.875Z,1.60
2023-05-01T12:23:17.054Z,1.50
2023-05-01T12:25:45.029Z,1.60
2023-05-01T12:28:18.565Z,2.00
2023-05-01T12:30:46.477Z,1.80
2023-05-01T12:33:15.985Z,2.00
2023-05-01T12:35:49.215Z,3.50
2023-05-01T12:40:56.829Z,1.50
2023-05-01T12:43:31.567Z,1.90
2023-05-01T12:45:58.701Z,1.50
2023-05-01T12:48:25.898Z,1.40
2023-05-01T12:50:55.908Z,1.50
2023-05-01T12:53:23.865Z,1.20
2023-05-01T12:55:52.506Z,1.50
2023-05-01T12:58:19.640Z,1.20
2023-05-01T13:00:53.832Z,1.30
2023-05-01T13:03:30.308Z,1.50
2023-05-01T13:05:58.941Z,1.60
2023-05-01T13:08:46.305Z,2.30
2023-05-01T13:11:16.923Z,1.80
2023-05-01T13:13:44.882Z,1.80
2023-05-01T13:16:13.295Z,1.60
2023-05-01T13:18:47.522Z,1.40
2023-05-01T13:21:19.956Z,1.50
2023-05-01T13:23:57.662Z,1.50
2023-05-01T13:26:32.859Z,1.90
2023-05-01T13:29:02.090Z,2.00
2023-05-01T13:31:29.335Z,1.60
2023-05-01T13:33:58.436Z,2.00
2023-05-01T13:36:27.508Z,2.60
2023-05-01T13:38:56.419Z,2.20
2023-05-01T13:41:25.911Z,2.00
2023-05-01T13:43:54.136Z,1.70
2023-05-01T13:46:22.058Z,1.90
2023-05-01T13:48:49.419Z,1.60
2023-05-01T13:51:24.193Z,2.90
2023-05-01T13:53:53.696Z,1.40
2023-05-01T13:56:22.014Z,2.70
2023-05-01T13:58:51.123Z,2.40
2023-05-01T14:01:20.898Z,2.10
2023-05-01T14:03:48.718Z,1.60
2023-05-01T14:06:18.024Z,1.80
2023-05-01T14:08:46.436Z,2.00
2023-05-01T14:11:13.465Z,1.90
2023-05-01T14:13:41.176Z,1.90
2023-05-01T14:16:12.378Z,1.70
2023-05-01T14:18:44.705Z,1.60
2023-05-01T14:21:12.928Z,1.50
2023-05-01T14:23:42.334Z,2.00
2023-05-01T14:26:09.924Z,1.80
2023-05-01T14:28:44.790Z,1.90
2023-05-01T14:31:25.403Z,1.60
2023-05-01T14:33:55.383Z,1.60
2023-05-01T14:36:23.089Z,1.90
2023-05-01T14:38:50.873Z,1.50
2023-05-01T14:41:19.749Z,1.60
2023-05-01T14:43:47.119Z,1.60
2023-05-01T14:46:17.696Z,1.50
2023-05-01T14:48:44.843Z,2.00
2023-05-01T14:51:12.811Z,1.30
2023-05-01T14:53:42.092Z,1.50
2023-05-01T14:56:09.255Z,2.00
2023-05-01T14:58:36.491Z,1.30
2023-05-01T15:01:03.598Z,1.70
2023-05-01T15:03:30.836Z,1.60
2023-05-01T15:05:58.760Z,1.80
2023-05-01T15:08:25.946Z,1.90
2023-05-01T15:10:53.049Z,2.10
2023-05-01T15:13:21.345Z,1.90
2023-05-01T15:15:48.411Z,2.30
2023-05-01T15:18:15.510Z,1.80
2023-05-01T15:20:44.114Z,1.70
2023-05-01T15:23:11.861Z,1.70
2023-05-01T15:25:38.905Z,1.90
2023-05-01T15:28:06.033Z,1.70
2023-05-01T15:30:33.308Z,1.90
2023-05-01T15:33:00.698Z,1.60
2023-05-01T15:35:29.923Z,1.60
2023-05-01T15:37:57.783Z,1.50
2023-05-01T15:40:25.540Z,2.20
2023-05-01T15:42:53.518Z,1.90
2023-05-01T15:45:20.744Z,1.60
2023-05-01T15:47:47.770Z,1.70
2023-05-01T15:50:14.828Z,1.90
2023-05-01T15:52:41.989Z,1.80
2023-05-01T15:55:09.167Z,1.40
2023-05-01T15:57:36.217Z,1.70
2023-05-01T16:00:04.786Z,1.50
2023-05-01T16:02:33.196Z,1.70
2023-05-01T16:05:01.200Z,1.80
2023-05-01T16:07:29.284Z,2.10
2023-05-01T16:09:57.452Z,2.80
2023-05-01T16:12:24.802Z,3.00
2023-05-01T16:14:52.188Z,3.30
2023-05-01T16:17:19.832Z,2.90
2023-05-01T16:19:47.243Z,2.10
2023-05-01T16:22:14.688Z,1.80
2023-05-01T16:24:42.449Z,1.90
2023-05-01T16:27:13.314Z,2.00
2023-05-01T16:29:40.970Z,1.80
2023-05-01T16:32:11.385Z,2.10
2023-05-01T16:34:39.415Z,1.50
2023-05-01T16:37:06.611Z,2.10
2023-05-01T16:39:36.117Z,2.10
2023-05-01T16:42:03.312Z,3.10
2023-05-01T16:44:30.370Z,3.60
2023-05-01T16:46:59.430Z,4.40
2023-05-01T16:49:27.716Z,5.60
2023-05-01T16:51:57.381Z,7.30
2023-05-01T16:54:25.248Z,6.10
2023-05-01T16:56:52.210Z,4.80
2023-05-01T16:59:19.262Z,3.70
2023-05-01T17:01:46.375Z,3.40
2023-05-01T17:04:14.486Z,3.20
2023-05-01T17:06:42.006Z,2.90
2023-05-01T17:09:09.101Z,3.10
2023-05-01T17:11:36.187Z,3.50
2023-05-01T17:14:03.752Z,3.30
2023-05-01T17:16:32.522Z,3.50
2023-05-01T17:18:59.642Z,4.10
2023-05-01T17:21:27.391Z,4.60
2023-05-01T17:23:54.940Z,5.20
2023-05-01T17:26:22.971Z,5.80
2023-05-01T17:28:50.732Z,5.30
2023-05-01T17:31:19.340Z,5.00
2023-05-01T17:33:48.515Z,4.50
2023-05-01T17:36:15.799Z,4.30
2023-05-01T17:38:42.914Z,4.60
2023-05-01T17:41:09.878Z,4.60
2023-05-01T17:43:36.948Z,5.00
2023-05-01T17:46:05.141Z,4.50
2023-05-01T17:48:32.164Z,5.90
2023-05-01T17:50:59.353Z,5.40
2023-05-01T17:53:26.411Z,6.10
2023-05-01T17:55:53.495Z,6.60
2023-05-01T17:58:21.189Z,7.30
2023-05-01T18:00:48.682Z,7.70
2023-05-01T18:03:16.056Z,8.30
2023-05-01T18:05:44.432Z,8.20
2023-05-01T18:08:11.512Z,9.20
2023-05-01T18:10:38.608Z,5.90
2023-05-01T18:13:05.633Z,5.60
2023-05-01T18:15:33.421Z,6.20
2023-05-01T18:18:00.492Z,5.80
2023-05-01T18:20:29.080Z,6.30
2023-05-01T18:22:56.101Z,7.10
2023-05-01T18:25:23.302Z,6.90
2023-05-01T18:27:50.905Z,7.20
2023-05-01T18:30:18.010Z,6.90
2023-05-01T18:32:48.773Z,7.10
2023-05-01T18:35:17.834Z,7.00
2023-05-01T18:37:45.130Z,7.70
2023-05-01T18:40:12.907Z,8.30
2023-05-01T18:42:41.163Z,8.20
2023-05-01T18:45:10.001Z,7.70
2023-05-01T18:47:37.126Z,8.30
2023-05-01T18:50:06.304Z,8.80
2023-05-01T18:52:33.474Z,8.80
2023-05-01T18:55:00.455Z,8.40
2023-05-01T18:57:28.977Z,9.70
2023-05-01T18:59:56.057Z,9.70
2023-05-01T19:02:23.281Z,11.20
2023-05-01T19:04:57.369Z,13.70
2023-05-01T19:07:26.572Z,18.80
2023-05-01T19:09:53.949Z,19.60
2023-05-01T19:12:21.153Z,21.30
2023-05-01T19:14:49.069Z,23.10
2023-05-01T19:17:16.201Z,27.60
2023-05-01T19:19:43.253Z,36.80
2023-05-01T19:22:10.434Z,47.60
2023-05-01T19:24:37.496Z,79.50
2023-05-01T19:27:04.500Z,104.70
2023-05-01T19:29:31.922Z,122.00
2023-05-01T19:32:01.882Z,147.50
2023-05-01T19:34:30.093Z,167.70
2023-05-01T19:36:59.495Z,156.70
2023-05-01T19:39:26.687Z,162.20
2023-05-01T19:41:54.081Z,167.20
2023-05-01T19:44:21.859Z,165.30
2023-05-01T19:46:49.165Z,158.90
2023-05-01T19:49:16.168Z,150.00
2023-05-01T19:51:43.281Z,143.50
2023-05-01T19:54:10.394Z,135.00
2023-05-01T19:56:41.035Z,127.00
2023-05-01T19:59:07.975Z,119.30
2023-05-01T20:01:35.006Z,107.80
2023-05-01T20:04:02.636Z,92.30
2023-05-01T20:06:29.639Z,79.30
2023-05-01T20:08:56.673Z,67.10
2023-05-01T20:11:23.746Z,60.70
2023-05-01T20:13:51.433Z,51.20
2023-05-01T20:16:18.666Z,44.20
2023-05-01T20:18:45.737Z,40.60
2023-05-01T20:21:12.761Z,35.50
2023-05-01T20:23:40.342Z,36.20
2023-05-01T20:26:07.456Z,36.40
2023-05-01T20:28:34.404Z,32.70
2023-05-01T20:31:01.837Z,29.00
2023-05-01T20:33:29.089Z,26.50
2023-05-01T20:35:56.043Z,25.50
2023-05-01T20:38:24.417Z,22.90
2023-05-01T20:40:51.822Z,23.20
2023-05-01T20:43:19.729Z,23.70
2023-05-01T20:45:46.873Z,26.20
2023-05-01T20:48:13.872Z,24.50
2023-05-01T20:50:43.763Z,22.40
2023-05-01T20:53:10.876Z,21.20
2023-05-01T20:55:37.792Z,21.10
2023-05-01T20:58:04.784Z,21.80
2023-05-01T21:00:31.670Z,19.50
2023-05-01T21:02:59.965Z,18.70
2023-05-01T21:05:27.284Z,19.50
2023-05-01T21:07:54.215Z,20.00
2023-05-01T21:10:21.282Z,19.10
2023-05-01T21:12:48.335Z,19.30
2023-05-01T21:15:15.404Z,18.90
2023-05-01T21:17:43.547Z,19.00
2023-05-01T21:20:30.261Z,19.20
2023-05-01T21:22:57.293Z,18.30
2023-05-01T21:25:27.055Z,18.50
2023-05-01T21:27:54.168Z,34.70
2023-05-01T21:30:33.674Z,31.50
2023-05-01T21:33:01.864Z,35.40
2023-05-01T21:35:29.930Z,32.00
2023-05-01T21:37:57.764Z,34.50
2023-05-01T21:40:25.142Z,35.10
2023-05-01T21:42:56.489Z,31.90
2023-05-01T21:45:23.644Z,30.10
2023-05-01T21:47:51.144Z,28.10
2023-05-01T21:50:19.562Z,28.20
2023-05-01T21:52:47.863Z,25.10
2023-05-01T21:55:20.048Z,25.70
2023-05-01T21:57:47.112Z,24.70
2023-05-01T22:00:15.868Z,25.20
2023-05-01T22:02:44.824Z,23.50
2023-05-01T22:05:13.601Z,23.10
2023-05-01T22:07:41.356Z,21.60
2023-05-01T22:10:09.618Z,21.40
2023-05-01T22:12:36.761Z,19.50
2023-05-01T22:15:04.060Z,21.70
2023-05-01T22:17:31.141Z,19.40
2023-05-01T22:19:58.372Z,18.80
2023-05-01T22:22:25.578Z,17.80
2023-05-01T22:24:52.993Z,16.30
2023-05-01T22:27:19.974Z,17.10
2023-05-01T22:29:46.936Z,16.80
2023-05-01T22:32:14.028Z,16.20
2023-05-01T22:34:41.013Z,14.40
2023-05-01T22:37:08.332Z,15.20
2023-05-01T22:39:36.477Z,14.80
2023-05-01T22:42:05.497Z,13.70
2023-05-01T22:44:33.365Z,12.80
2023-05-01T22:47:00.529Z,12.40
2023-05-01T22:49:32.104Z,12.80
2023-05-01T22:51:59.889Z,11.80
2023-05-01T22:54:29.520Z,12.10
2023-05-01T22:56:56.643Z,12.80
2023-05-01T22:59:23.698Z,13.30
2023-05-01T23:01:50.871Z,13.10
2023-05-01T23:04:18.142Z,12.20
2023-05-01T23:06:45.823Z,11.70
2023-05-01T23:09:12.918Z,12.10
2023-05-01T23:11:40.588Z,12.50
2023-05-01T23:14:07.600Z,12.10
2023-05-01T23:16:41.566Z,11.70
2023-05-01T23:19:20.360Z,11.60
2023-05-01T23:21:47.731Z,11.90
2023-05-01T23:24:19.445Z,11.10
2023-05-01T23:26:46.565Z,10.70
2023-05-01T23:29:13.838Z,10.70
2023-05-01T23:31:46.647Z,10.10
2023-05-01T23:36:46.703Z,9.70
2023-05-01T23:39:13.998Z,9.70
2023-05-01T23:41:41.002Z,9.90
2023-05-01T23:44:08.078Z,10.30
2023-05-01T23:46:35.614Z,10.70
2023-05-01T23:49:02.571Z,10.50
2023-05-01T23:51:29.758Z,11.00
2023-05-01T23:53:56.866Z,11.20
2023-05-01T23:56:23.874Z,10.50
2023-05-01T23:58:50.838Z,10.00
